Time;durP1;ratioP1;P1;durP2;ratioP2;P2;SDS_P1;SDS_P2;PMS_P1;PMS_P2;Temp;Humidity;BMP_temperature;BMP_pressure;BME280_temperature;BME280_humidity;BME280_pressure;Samples;Min_cycle;Max_cycle;Signal;HPM_P1;HPM_P2
2022/04/10 00:02:11;;;;;;;6.07;1.90;;;;;;;1.43;nan;101705.28;5055206;28;20132;-57
2022/04/10 00:04:37;;;;;;;9.60;1.88;;;;;;;1.82;nan;101768.28;5054275;28;20091;-59
2022/04/10 00:07:02;;;;;;;9.80;2.22;;;;;;;1.44;nan;101702.72;5054153;28;20052;-58
2022/04/10 00:09:27;;;;;;;8.95;2.05;;;;;;;1.81;nan;101776.06;5055410;28;20037;-54
2022/04/10 00:11:53;;;;;;;7.68;2.45;;;;;;;1.79;nan;101765.63;5055371;28;20033;-57
2022/04/10 00:14:18;;;;;;;17.60;3.05;;;;;;;1.40;nan;101698.28;5055030;28;20076;-59
2022/04/10 00:16:43;;;;;;;7.78;2.45;;;;;;;1.72;nan;101750.81;5053644;28;20061;-57
2022/04/10 00:19:09;;;;;;;9.20;2.38;;;;;;;1.78;nan;101763.00;5055322;28;20091;-59
2022/04/10 00:21:34;;;;;;;9.50;3.15;;;;;;;1.73;nan;101754.25;5055103;28;20594;-54
2022/04/10 00:23:59;;;;;;;10.88;3.08;;;;;;;1.69;nan;101758.53;5055154;28;20025;-60
2022/04/10 00:26:25;;;;;;;7.13;2.25;;;;;;;1.63;nan;101745.44;5053922;28;20036;-57
2022/04/10 00:28:51;;;;;;;9.60;2.20;;;;;;;1.65;nan;101765.38;5054802;28;20527;-60
2022/04/10 00:31:18;;;;;;;10.07;2.55;;;;;;;1.45;nan;101712.25;5055024;28;20036;-60
2022/04/10 00:33:44;;;;;;;11.60;2.70;;;;;;;1.75;nan;101763.84;5053628;28;20033;-57
2022/04/10 00:36:10;;;;;;;13.05;3.05;;;;;;;1.40;nan;101695.69;5054835;28;20393;-56
2022/04/10 00:38:35;;;;;;;12.30;1.77;;;;;;;1.32;nan;101692.09;5054566;28;20094;-60
2022/04/10 00:41:01;;;;;;;12.07;2.97;;;;;;;1.69;nan;101750.75;5053647;28;20028;-56
2022/04/10 00:43:32;;;;;;;9.02;2.83;;;;;;;1.27;nan;101685.97;5053245;28;20049;-57
2022/04/10 00:45:58;;;;;;;6.95;2.60;;;;;;;1.61;nan;101749.72;5069404;28;20040;-57
2022/04/10 00:48:23;;;;;;;11.63;2.42;;;;;;;1.51;nan;101753.00;5036132;28;20124;-57
2022/04/10 00:53:33;;;;;;;9.20;2.80;;;;;;;1.37;nan;101750.13;5054620;28;20047;-55
2022/04/10 00:55:58;;;;;;;10.52;3.53;;;;;;;1.34;nan;101760.47;5054431;28;20025;-56
2022/04/10 00:58:24;;;;;;;9.65;2.28;;;;;;;1.30;nan;101749.97;5054376;28;20043;-58
2022/04/10 01:00:49;;;;;;;10.43;2.72;;;;;;;1.26;nan;101753.34;5069811;28;20033;-56
2022/04/10 01:03:14;;;;;;;6.93;2.40;;;;;;;1.09;nan;101745.25;5054239;28;20037;-56
2022/04/10 01:05:40;;;;;;;8.57;2.38;;;;;;;0.90;nan;101701.66;5054474;28;20033;-56
2022/04/10 01:08:06;;;;;;;6.53;2.30;;;;;;;1.04;nan;101739.97;5052918;28;20033;-57
2022/04/10 01:10:32;;;;;;;9.27;2.75;;;;;;;0.99;nan;101741.56;5054574;28;20033;-57
2022/04/10 01:12:57;;;;;;;10.60;3.03;;;;;;;1.04;nan;101758.13;5036476;28;20098;-59
2022/04/10 01:15:23;;;;;;;7.45;2.30;;;;;;;1.02;nan;101762.38;5053950;28;20033;-58
2022/04/10 01:17:49;;;;;;;7.07;2.35;;;;;;;0.98;nan;101757.13;5054096;28;20041;-57
2022/04/10 01:20:14;;;;;;;12.05;2.25;;;;;;;0.96;nan;101766.59;5052754;28;20037;-57
2022/04/10 01:22:40;;;;;;;4.05;2.00;;;;;;;0.88;nan;101749.97;5052699;28;20064;-58
2022/04/10 01:25:07;;;;;;;12.15;2.67;;;;;;;0.92;nan;101763.03;5054204;28;20415;-56
2022/04/10 01:27:37;;;;;;;8.05;2.28;;;;;;;0.84;nan;101754.25;5053596;28;20048;-58
2022/04/10 01:30:03;;;;;;;9.13;2.58;;;;;;;0.89;nan;101762.09;5053908;28;20169;-56
2022/04/10 01:32:29;;;;;;;7.43;2.30;;;;;;;0.58;nan;101714.78;5053696;28;20098;-57
2022/04/10 01:34:56;;;;;;;14.05;2.75;;;;;;;0.82;nan;101749.84;5053939;28;20029;-61
2022/04/10 01:37:21;;;;;;;3.95;1.75;;;;;;;0.96;nan;101770.03;5053620;28;20041;-58
2022/04/10 01:39:47;;;;;;;5.88;2.15;;;;;;;0.70;nan;101716.75;5069069;28;20086;-55
2022/04/10 01:42:13;;;;;;;10.77;2.72;;;;;;;1.04;nan;101767.63;5052154;28;20044;-56
2022/04/10 01:44:42;;;;;;;5.10;2.03;;;;;;;1.06;nan;101771.97;5053073;28;20057;-56
2022/04/10 01:47:08;;;;;;;7.97;2.50;;;;;;;1.03;nan;101752.88;5053552;28;20041;-56
2022/04/10 01:49:33;;;;;;;4.97;2.30;;;;;;;1.11;nan;101767.75;5068857;28;20496;-61
2022/04/10 01:51:59;;;;;;;6.38;2.40;;;;;;;1.16;nan;101769.59;5052076;28;20128;-55
2022/04/10 01:54:24;;;;;;;12.00;2.75;;;;;;;1.12;nan;101760.84;5053127;28;20505;-60
2022/04/10 01:56:49;;;;;;;8.57;2.17;;;;;;;1.16;nan;101774.78;5052329;28;20045;-60
2022/04/10 01:59:15;;;;;;;6.70;2.53;;;;;;;0.72;nan;101706.44;5053476;28;20028;-58
2022/04/10 02:01:40;;;;;;;6.65;2.00;;;;;;;0.81;nan;101741.22;5052002;28;20033;-57
2022/04/10 02:04:06;;;;;;;9.65;2.42;;;;;;;0.95;nan;101762.22;5052792;28;20035;-56
2022/04/10 02:06:34;;;;;;;9.65;2.40;;;;;;;0.96;nan;101790.75;5052643;28;20063;-60
2022/04/10 02:08:59;;;;;;;10.05;2.92;;;;;;;0.61;nan;101728.66;5051374;28;20047;-61
2022/04/10 02:11:24;;;;;;;9.90;3.55;;;;;;;0.90;nan;101793.25;5051556;28;20032;-58
2022/04/10 02:13:50;;;;;;;7.18;2.20;;;;;;;0.85;nan;101768.03;5052542;28;20032;-59
2022/04/10 02:16:17;;;;;;;7.20;2.22;;;;;;;0.78;nan;101771.38;5051123;28;20082;-54
2022/04/10 02:18:43;;;;;;;9.77;2.65;;;;;;;0.76;nan;101783.41;5052548;28;20059;-59
2022/04/10 02:21:09;;;;;;;7.78;2.17;;;;;;;0.70;nan;101794.50;5067967;28;20079;-59
2022/04/10 02:23:34;;;;;;;5.40;2.38;;;;;;;0.63;nan;101771.00;5050886;28;20025;-61
2022/04/10 02:26:00;;;;;;;9.88;2.50;;;;;;;0.70;nan;101781.53;5052679;28;20032;-60
2022/04/10 02:28:25;;;;;;;7.00;2.10;;;;;;;0.35;nan;101730.66;5052829;28;20037;-55
2022/04/10 02:30:50;;;;;;;6.22;2.35;;;;;;;0.47;nan;101755.13;5051297;28;20218;-60
2022/04/10 02:33:16;;;;;;;8.82;2.88;;;;;;;0.68;nan;101784.94;5052191;28;20036;-60
2022/04/10 02:35:41;;;;;;;7.63;2.28;;;;;;;0.34;nan;101727.19;5052222;28;20040;-57
2022/04/10 02:38:07;;;;;;;10.02;2.08;;;;;;;0.71;nan;101788.47;5050921;28;20036;-58
2022/04/10 02:40:32;;;;;;;8.13;2.28;;;;;;;0.39;nan;101723.00;5052281;28;20024;-59
2022/04/10 02:42:57;;;;;;;11.35;2.53;;;;;;;0.44;nan;101715.31;5050614;28;20072;-57
2022/04/10 02:45:23;;;;;;;10.40;2.60;;;;;;;0.83;nan;101785.28;5052033;28;20434;-59
2022/04/10 02:47:48;;;;;;;6.78;2.55;;;;;;;0.57;nan;101738.06;5052007;28;20035;-56
2022/04/10 02:50:13;;;;;;;13.32;2.70;;;;;;;0.84;nan;101794.81;5051992;28;20033;-58
2022/04/10 02:52:40;;;;;;;7.82;2.58;;;;;;;0.61;nan;101752.88;5050480;28;20048;-56
2022/04/10 02:55:07;;;;;;;8.98;2.75;;;;;;;0.40;nan;101719.56;5051843;28;20472;-56
2022/04/10 02:57:33;;;;;;;9.75;2.17;;;;;;;0.72;nan;101779.88;5051956;28;20039;-56
2022/04/10 02:59:58;;;;;;;11.98;2.50;;;;;;;0.48;nan;101745.63;5051982;28;20127;-58
2022/04/10 03:02:23;;;;;;;8.88;2.03;;;;;;;0.59;nan;101777.84;5050574;28;20043;-56
2022/04/10 03:04:49;;;;;;;7.22;2.38;;;;;;;0.67;nan;101798.75;5051765;28;20090;-57
2022/04/10 03:07:14;;;;;;;7.00;2.35;;;;;;;0.63;nan;101790.03;5051790;28;20064;-57
2022/04/10 03:09:39;;;;;;;10.45;2.13;;;;;;;0.57;nan;101779.53;5051858;28;20025;-58
2022/04/10 03:12:05;;;;;;;5.25;1.90;;;;;;;0.38;nan;101734.19;5051570;28;20037;-55
2022/04/10 03:14:30;;;;;;;6.80;2.30;;;;;;;0.47;nan;101739.56;5050396;28;20037;-59
2022/04/10 03:16:57;;;;;;;5.03;2.08;;;;;;;0.49;nan;101740.50;5067249;28;20033;-59
2022/04/10 03:19:22;;;;;;;7.07;2.40;;;;;;;0.82;nan;101806.84;5051518;28;20041;-58
2022/04/10 03:21:47;;;;;;;5.90;2.15;;;;;;;0.78;nan;101802.47;5050177;28;20086;-60
2022/04/10 03:24:13;;;;;;;6.72;2.10;;;;;;;0.73;nan;101797.16;5067028;28;20044;-59
2022/04/10 03:26:39;;;;;;;4.15;1.90;;;;;;;0.47;nan;101751.66;5051846;28;20041;-55
2022/04/10 03:29:04;;;;;;;5.03;1.83;;;;;;;0.74;nan;101817.06;5052167;28;20037;-60
2022/04/10 03:31:30;;;;;;;7.28;1.80;;;;;;;0.72;nan;101815.28;5051619;28;20033;-58
2022/04/10 03:33:55;;;;;;;6.57;2.13;;;;;;;0.35;nan;101756.56;5051536;28;20037;-57
2022/04/10 03:36:20;;;;;;;7.50;1.65;;;;;;;0.70;nan;101819.56;5051350;28;20069;-60
2022/04/10 03:38:45;;;;;;;7.97;2.80;;;;;;;0.72;nan;101818.75;5050151;28;20040;-59
2022/04/10 03:41:11;;;;;;;9.13;2.15;;;;;;;0.77;nan;101836.97;5050213;28;20060;-60
2022/04/10 03:43:36;;;;;;;6.38;2.85;;;;;;;0.77;nan;101824.91;5050012;28;20151;-58
2022/04/10 03:46:02;;;;;;;4.65;2.58;;;;;;;0.77;nan;101827.50;5051275;28;20061;-58
2022/04/10 03:48:28;;;;;;;5.65;2.25;;;;;;;0.78;nan;101824.06;5051307;28;20041;-56
2022/04/10 03:50:53;;;;;;;9.93;2.60;;;;;;;0.79;nan;101824.97;5066702;28;20032;-56
2022/04/10 03:53:19;;;;;;;8.07;1.90;;;;;;;0.70;nan;101804.84;5051590;28;20115;-57
2022/04/10 03:55:44;;;;;;;4.68;2.10;;;;;;;0.57;nan;101800.25;5051502;28;20052;-60
2022/04/10 03:58:09;;;;;;;6.93;2.13;;;;;;;0.28;nan;101760.72;5051692;28;20434;-56
2022/04/10 04:00:35;;;;;;;6.70;1.90;;;;;;;0.59;nan;101819.28;5057737;28;20567;-58
2022/04/10 04:03:01;;;;;;;5.53;2.17;;;;;;;0.52;nan;101830.38;5046978;28;20033;-60
2022/04/10 04:05:26;;;;;;;10.35;2.10;;;;;;;0.17;nan;101788.06;5050653;28;20103;-57
2022/04/10 04:07:51;;;;;;;7.65;1.92;;;;;;;0.07;nan;101778.31;5049500;28;20401;-57
2022/04/10 04:10:17;;;;;;;9.32;2.30;;;;;;;0.31;nan;101830.72;5047209;28;20544;-58
2022/04/10 04:12:42;;;;;;;8.10;2.70;;;;;;;-0.06;nan;101779.72;5049829;28;20080;-53
2022/04/10 04:15:08;;;;;;;7.65;2.25;;;;;;;0.18;nan;101826.06;5049154;28;20037;-57
2022/04/10 04:17:33;;;;;;;5.38;2.58;;;;;;;0.12;nan;101822.44;5050003;28;20044;-54
2022/04/10 04:19:59;;;;;;;8.02;2.38;;;;;;;-0.13;nan;101779.53;5050894;28;20040;-60
2022/04/10 04:22:24;;;;;;;6.80;2.20;;;;;;;0.04;nan;101821.34;5049667;28;20029;-54
2022/04/10 04:24:49;;;;;;;9.68;2.25;;;;;;;-0.16;nan;101800.16;5052102;28;20035;-57
2022/04/10 04:27:15;;;;;;;8.35;2.17;;;;;;;0.13;nan;101852.66;5054829;28;20029;-55
2022/04/10 04:29:40;;;;;;;5.10;2.03;;;;;;;-0.23;nan;101780.97;5054653;28;20076;-56
2022/04/10 04:32:06;;;;;;;7.25;2.45;;;;;;;0.15;nan;101844.09;5054829;28;20021;-57
2022/04/10 04:34:32;;;;;;;10.68;2.65;;;;;;;0.18;nan;101848.47;5069897;28;20441;-59
2022/04/10 04:36:57;;;;;;;8.77;2.28;;;;;;;0.18;nan;101844.16;5054486;28;20112;-57
2022/04/10 04:39:22;;;;;;;4.22;2.00;;;;;;;0.17;nan;101857.09;5069866;28;20106;-59
2022/04/10 04:41:48;;;;;;;10.45;2.33;;;;;;;0.12;nan;101853.53;5054586;28;20540;-56
2022/04/10 04:44:14;;;;;;;7.68;2.45;;;;;;;-0.36;nan;101788.41;5069556;28;20128;-56
2022/04/10 04:46:40;;;;;;;12.65;3.58;;;;;;;0.06;nan;101856.78;5052799;28;20045;-56
2022/04/10 04:49:05;;;;;;;6.32;2.60;;;;;;;0.00;nan;101862.69;5052944;28;20036;-55
2022/04/10 04:51:34;;;;;;;5.88;2.10;;;;;;;0.04;nan;101870.53;5054308;28;20045;-57
2022/04/10 04:54:04;;;;;;;10.30;2.20;;;;;;;0.00;nan;101877.38;5053965;28;20504;-57
2022/04/10 04:56:30;;;;;;;9.75;2.40;;;;;;;-0.40;nan;101802.94;5069671;28;20033;-58
2022/04/10 04:58:55;;;;;;;8.55;2.42;;;;;;;-0.08;nan;101865.91;5054300;28;20140;-56
2022/04/10 05:01:21;;;;;;;7.28;2.10;;;;;;;-0.45;nan;101807.13;5054024;28;20028;-57
2022/04/10 05:03:48;;;;;;;5.32;2.15;;;;;;;-0.08;nan;101879.72;5052608;28;20029;-57
2022/04/10 05:06:14;;;;;;;8.93;2.65;;;;;;;-0.40;nan;101813.28;5053505;28;20033;-55
2022/04/10 05:08:39;;;;;;;9.52;2.33;;;;;;;-0.05;nan;101877.22;5053903;28;20032;-59
2022/04/10 05:11:06;;;;;;;4.88;2.60;;;;;;;-0.48;nan;101794.13;5053882;28;20040;-57
2022/04/10 05:13:31;;;;;;;8.23;2.63;;;;;;;-0.02;nan;101879.03;5052273;28;20482;-54
2022/04/10 05:15:57;;;;;;;4.82;2.30;;;;;;;-0.41;nan;101808.97;5053537;28;20029;-57
2022/04/10 05:18:22;;;;;;;3.85;2.20;;;;;;;0.01;nan;101881.69;5053678;28;20127;-59
2022/04/10 05:20:47;;;;;;;7.45;3.00;;;;;;;0.02;nan;101890.34;5058921;28;20489;-56
2022/04/10 05:23:17;;;;;;;8.90;3.03;;;;;;;-0.34;nan;101818.63;5053610;28;20041;-56
2022/04/10 05:25:42;;;;;;;4.75;1.90;;;;;;;0.01;nan;101876.50;5053373;28;20494;-57
2022/04/10 05:28:08;;;;;;;12.88;2.88;;;;;;;0.07;nan;101891.31;5052012;28;20059;-57
2022/04/10 05:30:33;;;;;;;10.38;3.03;;;;;;;0.11;nan;101883.69;5068729;28;20482;-55
2022/04/10 05:32:58;;;;;;;13.30;3.03;;;;;;;0.19;nan;101897.72;5053332;28;20036;-60
2022/04/10 05:35:24;;;;;;;4.93;2.28;;;;;;;0.29;nan;101899.69;5052777;28;20072;-54
2022/04/10 05:37:49;;;;;;;8.27;2.65;;;;;;;0.41;nan;101904.31;5052053;28;20470;-56
2022/04/10 05:40:18;;;;;;;8.73;3.13;;;;;;;0.51;nan;101908.91;5052935;28;20033;-53
2022/04/10 05:42:44;;;;;;;9.05;3.20;;;;;;;0.63;nan;101904.03;5052683;28;20102;-57
2022/04/10 05:45:10;;;;;;;8.80;3.30;;;;;;;0.76;nan;101919.03;5052685;28;20135;-57
2022/04/10 05:47:38;;;;;;;8.38;2.72;;;;;;;0.85;nan;101900.22;5053044;28;20052;-56
2022/04/10 05:50:03;;;;;;;8.32;3.08;;;;;;;0.97;nan;101898.81;5053090;28;20029;-51
2022/04/10 05:52:29;;;;;;;6.65;2.60;;;;;;;1.19;nan;101901.91;5068460;28;20033;-54
2022/04/10 05:54:58;;;;;;;10.75;3.13;;;;;;;1.33;nan;101897.88;5052907;28;20052;-57
2022/04/10 05:57:24;;;;;;;12.80;2.40;;;;;;;1.52;nan;101928.56;5068246;28;20040;-52
2022/04/10 05:59:49;;;;;;;7.28;2.58;;;;;;;1.66;nan;101911.59;5051676;28;20032;-57
2022/04/10 06:02:15;;;;;;;10.25;2.85;;;;;;;1.60;nan;101863.03;5051415;28;20035;-56
2022/04/10 06:04:40;;;;;;;9.88;3.60;;;;;;;2.14;nan;101920.34;5053213;28;20052;-54
2022/04/10 06:07:05;;;;;;;5.20;2.42;;;;;;;2.44;nan;101943.41;5068133;28;20052;-57
2022/04/10 06:09:30;;;;;;;9.23;2.50;;;;;;;2.69;nan;101931.72;5051068;28;20492;-58
2022/04/10 06:11:56;;;;;;;4.07;2.10;;;;;;;2.88;nan;101912.09;5052547;28;20131;-58
2022/04/10 06:14:22;;;;;;;5.07;2.47;;;;;;;3.18;nan;101928.19;5067762;28;20044;-54
2022/04/10 06:16:48;;;;;;;9.50;1.80;;;;;;;3.36;nan;101931.03;5050957;28;20043;-58
2022/04/10 06:19:16;;;;;;;3.38;1.23;;;;;;;3.50;nan;101932.13;5052529;28;20040;-56
2022/04/10 06:21:41;;;;;;;10.07;1.70;;;;;;;3.58;nan;101940.91;5052545;28;20033;-57
2022/04/10 06:24:07;;;;;;;7.10;1.98;;;;;;;3.68;nan;101934.06;5052746;28;20090;-55
2022/04/10 06:26:32;;;;;;;14.25;2.10;;;;;;;3.52;nan;101887.88;5052474;28;20037;-56
2022/04/10 06:28:58;;;;;;;3.25;1.60;;;;;;;4.12;nan;101955.47;5052204;28;20037;-58
2022/04/10 06:31:23;;;;;;;5.32;1.80;;;;;;;4.35;nan;101962.69;5052173;28;20132;-53
2022/04/10 06:33:50;;;;;;;5.30;2.05;;;;;;;4.51;nan;101975.03;5051212;28;20029;-53
2022/04/10 06:36:16;;;;;;;4.05;1.48;;;;;;;4.58;nan;101989.03;5052210;28;20124;-54
2022/04/10 06:38:41;;;;;;;5.18;1.33;;;;;;;4.55;nan;101991.59;5052077;28;20453;-57
2022/04/10 06:41:07;;;;;;;5.68;1.65;;;;;;;4.45;nan;101987.13;5050899;28;20041;-53
2022/04/10 06:43:32;;;;;;;3.13;1.50;;;;;;;4.61;nan;102002.09;5052042;28;20134;-56
2022/04/10 06:45:58;;;;;;;6.50;1.80;;;;;;;4.83;nan;102011.00;5050510;28;20053;-57
2022/04/10 06:48:23;;;;;;;7.97;1.73;;;;;;;5.10;nan;102009.53;5033737;28;20052;-55
2022/04/10 06:50:49;;;;;;;7.53;1.73;;;;;;;5.32;nan;101994.88;5052350;28;20029;-59
2022/04/10 06:53:14;;;;;;;6.82;1.67;;;;;;;5.77;nan;102012.59;5052275;28;20025;-57
2022/04/10 06:55:40;;;;;;;7.80;1.70;;;;;;;6.22;nan;102010.25;5067114;28;20095;-58
2022/04/10 06:58:05;;;;;;;7.28;1.90;;;;;;;6.23;nan;101945.75;5051509;28;20029;-58
2022/04/10 07:00:32;;;;;;;6.05;1.45;;;;;;;7.14;nan;102027.03;5067024;28;20043;-56
2022/04/10 07:02:57;;;;;;;4.93;1.17;;;;;;;7.62;nan;102016.50;5051956;28;20036;-55
2022/04/10 07:05:22;;;;;;;4.35;1.38;;;;;;;8.00;nan;102026.06;5050814;28;20470;-57
2022/04/10 07:07:48;;;;;;;8.27;1.63;;;;;;;8.37;nan;102035.56;5050574;28;20103;-57
2022/04/10 07:10:14;;;;;;;5.95;2.03;;;;;;;8.80;nan;102041.44;5063731;28;20056;-57
2022/04/10 07:12:39;;;;;;;5.47;1.50;;;;;;;9.23;nan;102044.63;5051449;28;20033;-58
2022/04/10 07:15:06;;;;;;;7.60;1.70;;;;;;;8.79;nan;101942.56;5051092;28;20036;-58
2022/04/10 07:17:31;;;;;;;4.63;1.50;;;;;;;9.02;nan;102011.53;5051397;28;20080;-59
2022/04/10 07:19:56;;;;;;;6.00;1.50;;;;;;;9.51;nan;102054.94;5051461;28;20502;-58
2022/04/10 07:25:06;;;;;;;4.18;1.42;;;;;;;10.30;nan;102051.53;5051713;28;20094;-58
2022/04/10 07:27:31;;;;;;;4.63;1.75;;;;;;;10.82;nan;102061.34;5051006;28;20049;-60
2022/04/10 07:29:56;;;;;;;4.78;1.50;;;;;;;11.38;nan;102066.66;5033062;28;20033;-59
2022/04/10 07:32:21;;;;;;;4.63;1.38;;;;;;;11.16;nan;102012.53;5051056;28;20051;-59
2022/04/10 07:34:47;;;;;;;6.18;1.50;;;;;;;11.55;nan;102071.66;5051685;28;20151;-59
2022/04/10 07:37:12;;;;;;;5.93;1.77;;;;;;;11.65;nan;102067.94;5050806;28;20037;-59
2022/04/10 07:39:37;;;;;;;5.63;1.55;;;;;;;11.59;nan;102066.28;5050935;28;20478;-60
2022/04/10 07:42:03;;;;;;;3.65;2.10;;;;;;;11.46;nan;102025.22;5048288;28;20048;-59
2022/04/10 07:44:29;;;;;;;4.97;1.60;;;;;;;11.77;nan;102078.31;5049445;28;20512;-59
2022/04/10 07:49:38;;;;;;;6.25;1.48;;;;;;;12.30;nan;102085.22;5051430;28;20080;-59
2022/04/10 07:52:03;;;;;;;6.15;1.35;;;;;;;12.61;nan;102080.22;5050932;28;20456;-59
2022/04/10 07:54:29;;;;;;;6.55;1.60;;;;;;;12.63;nan;102100.41;5050077;28;20044;-52
2022/04/10 07:56:54;;;;;;;5.32;1.35;;;;;;;12.58;nan;102081.13;5050951;28;20033;-51
2022/04/10 07:59:20;;;;;;;1.48;1.05;;;;;;;12.69;nan;102102.91;5052766;28;20066;-50
2022/04/10 08:01:45;;;;;;;3.97;1.20;;;;;;;12.88;nan;102059.31;5054511;28;20036;-53
2022/04/10 08:04:11;;;;;;;2.38;1.02;;;;;;;13.09;nan;102110.88;5054887;28;20040;-54
2022/04/10 08:06:36;;;;;;;2.75;0.90;;;;;;;12.23;nan;102117.94;5054576;28;20032;-54
2022/04/10 08:09:02;;;;;;;5.22;1.02;;;;;;;11.35;nan;102114.16;5054074;28;20052;-53
2022/04/10 08:11:28;;;;;;;5.13;1.48;;;;;;;10.50;nan;102106.53;5036562;28;20486;-48
2022/04/10 08:13:53;;;;;;;3.05;1.23;;;;;;;9.45;nan;102044.47;5054259;28;20037;-55
2022/04/10 08:16:19;;;;;;;4.07;1.25;;;;;;;9.41;nan;102112.81;5054429;28;20048;-54
2022/04/10 08:18:44;;;;;;;2.78;1.58;;;;;;;9.22;nan;102114.72;5065942;28;20127;-49
2022/04/10 08:21:09;;;;;;;7.07;1.50;;;;;;;8.30;nan;102050.44;5073171;28;20032;-51
2022/04/10 08:23:35;;;;;;;7.60;1.55;;;;;;;8.57;nan;102045.97;5074127;28;20396;-53
2022/04/10 08:26:01;;;;;;;5.47;1.35;;;;;;;9.78;nan;102103.75;5058782;28;20105;-49
2022/04/10 08:28:27;;;;;;;6.38;1.95;;;;;;;10.48;nan;102117.06;5054330;28;20041;-50
2022/04/10 08:30:52;;;;;;;3.55;0.90;;;;;;;10.74;nan;101971.91;5053874;28;20029;-50
2022/04/10 08:33:18;;;;;;;3.08;1.23;;;;;;;12.67;nan;102128.47;5054034;28;20120;-55
2022/04/10 08:35:43;;;;;;;3.47;1.00;;;;;;;12.25;nan;102073.91;5054200;28;20048;-52
2022/04/10 08:38:08;;;;;;;4.05;1.08;;;;;;;12.30;nan;102069.38;5053816;28;20517;-55
2022/04/10 08:40:34;;;;;;;3.97;0.90;;;;;;;12.70;nan;102078.22;5053886;28;20456;-53
2022/04/10 08:43:02;;;;;;;5.68;1.00;;;;;;;13.25;nan;102140.50;5052866;28;20039;-57
2022/04/10 08:45:29;;;;;;;3.85;1.40;;;;;;;13.33;nan;102086.50;5052775;28;20060;-53
2022/04/10 08:47:55;;;;;;;3.00;1.20;;;;;;;13.57;nan;102093.00;5052499;28;20095;-52
2022/04/10 08:50:23;;;;;;;2.85;1.20;;;;;;;14.38;nan;102087.31;5053305;28;20111;-55
2022/04/10 08:52:50;;;;;;;3.22;1.60;;;;;;;15.28;nan;102142.91;5058653;28;20283;-54
2022/04/10 08:55:16;;;;;;;3.60;1.50;;;;;;;15.08;nan;102115.25;5051263;28;20049;-56
2022/04/10 08:57:42;;;;;;;3.75;1.00;;;;;;;14.92;nan;102136.94;5053160;28;20099;-52
2022/04/10 09:00:07;;;;;;;4.30;1.30;;;;;;;15.40;nan;102142.53;5051991;28;20028;-57
2022/04/10 09:02:46;;;;;;;2.22;1.10;;;;;;;14.21;nan;102083.34;5053196;28;20051;-55
2022/04/10 09:05:24;;;;;;;2.90;1.35;;;;;;;14.37;nan;102084.69;5052236;28;20043;-54
2022/04/10 09:08:09;;;;;;;3.80;1.02;;;;;;;14.93;nan;102147.53;5053873;28;20036;-52
2022/04/10 09:11:01;;;;;;;5.72;1.10;;;;;;;15.46;nan;102148.53;5053322;28;20078;-53
2022/04/10 09:13:37;;;;;;;2.60;1.00;;;;;;;15.63;nan;102153.31;5069406;28;20388;-57
2022/04/10 09:16:15;;;;;;;3.28;1.30;;;;;;;16.23;nan;102148.59;5052410;28;20121;-57
2022/04/10 09:18:58;;;;;;;3.75;1.52;;;;;;;14.43;nan;102148.97;5052365;28;20021;-57
2022/04/10 09:21:35;;;;;;;4.55;1.17;;;;;;;13.96;nan;102147.53;5049135;28;20095;-53
2022/04/10 09:24:03;;;;;;;3.88;1.17;;;;;;;14.57;nan;102140.63;5053599;28;20025;-55
2022/04/10 09:26:48;;;;;;;3.25;1.00;;;;;;;14.55;nan;102090.34;5048188;28;20462;-58
2022/04/10 09:29:15;;;;;;;2.95;1.20;;;;;;;14.67;nan;102139.47;5050907;28;20039;-57
2022/04/10 09:31:40;;;;;;;6.10;1.35;;;;;;;15.87;nan;102147.22;5033013;28;20033;-54
2022/04/10 09:34:08;;;;;;;3.58;1.40;;;;;;;17.00;nan;102131.59;5034772;28;20045;-56
2022/04/10 09:36:39;;;;;;;3.72;1.15;;;;;;;17.12;nan;102148.88;5046185;28;20036;-59
2022/04/10 09:39:12;;;;;;;2.53;0.90;;;;;;;16.68;nan;102095.59;5032876;28;20112;-57
2022/04/10 09:41:39;;;;;;;3.03;1.08;;;;;;;16.26;nan;102159.09;5033024;28;20112;-54
2022/04/10 09:44:12;;;;;;;2.90;1.10;;;;;;;16.59;nan;102092.41;5031142;28;20029;-58
2022/04/10 09:46:38;;;;;;;2.20;1.17;;;;;;;17.37;nan;102149.63;5032899;28;20037;-57
2022/04/10 09:49:05;;;;;;;3.88;1.20;;;;;;;17.77;nan;102130.28;5032851;28;20501;-58
2022/04/10 09:51:30;;;;;;;6.60;1.15;;;;;;;17.90;nan;102145.69;5031724;28;20087;-54
2022/04/10 09:54:04;;;;;;;3.25;1.15;;;;;;;18.34;nan;102150.91;5031707;28;20029;-56
2022/04/10 09:56:29;;;;;;;5.03;1.42;;;;;;;18.30;nan;102155.50;5032700;28;20033;-51
2022/04/10 09:59:01;;;;;;;6.03;1.17;;;;;;;17.30;nan;102153.47;5032716;28;20035;-54
2022/04/10 10:01:27;;;;;;;4.07;1.42;;;;;;;17.18;nan;102160.16;5032519;28;20033;-57
2022/04/10 10:03:55;;;;;;;3.88;1.10;;;;;;;17.73;nan;102156.19;5031121;28;20026;-55
2022/04/10 10:06:21;;;;;;;2.90;1.20;;;;;;;16.96;nan;102166.34;5031270;28;20434;-56
2022/04/10 10:08:47;;;;;;;2.65;1.10;;;;;;;16.75;nan;102098.91;5014788;28;20068;-52
2022/04/10 10:11:13;;;;;;;3.13;1.08;;;;;;;16.11;nan;102103.84;5031145;28;20029;-58
2022/04/10 10:13:38;;;;;;;3.53;1.30;;;;;;;16.45;nan;102162.00;5031077;28;20063;-56
2022/04/10 10:16:04;;;;;;;2.55;0.90;;;;;;;16.52;nan;102093.53;5014550;28;20045;-57
2022/04/10 10:18:30;;;;;;;2.45;1.10;;;;;;;17.66;nan;102145.84;5031595;28;20501;-56
2022/04/10 10:20:55;;;;;;;4.85;1.33;;;;;;;18.79;nan;102156.03;5030664;28;20485;-58
2022/04/10 10:23:22;;;;;;;2.80;1.10;;;;;;;19.03;nan;102093.53;5029986;28;20061;-57
2022/04/10 10:26:27;;;;;;;5.30;1.10;;;;;;;19.24;nan;102107.59;5032139;28;20504;-57
2022/04/10 10:28:56;;;;;;;3.95;1.70;;;;;;;19.23;nan;102154.81;4966848;28;20045;-55
2022/04/10 10:31:30;;;;;;;3.47;1.40;;;;;;;18.45;nan;102152.16;5031877;28;20466;-52
2022/04/10 10:34:03;;;;;;;3.53;1.13;;;;;;;17.95;nan;102103.72;5030910;28;20049;-56
2022/04/10 10:36:28;;;;;;;2.05;1.27;;;;;;;18.78;nan;102152.47;5044486;28;20045;-57
2022/04/10 10:38:55;;;;;;;3.95;1.00;;;;;;;19.72;nan;102150.66;5050057;28;20059;-58
2022/04/10 10:41:20;;;;;;;2.92;1.08;;;;;;;19.01;nan;102162.94;5049324;28;20061;-54
2022/04/10 10:43:46;;;;;;;3.10;1.02;;;;;;;17.84;nan;102111.31;5051623;28;20139;-55
2022/04/10 10:46:26;;;;;;;5.50;1.15;;;;;;;16.62;nan;102154.31;5066669;28;20049;-55
2022/04/10 10:49:19;;;;;;;2.45;1.30;;;;;;;16.87;nan;102162.22;5050644;28;20083;-54
2022/04/10 10:51:50;;;;;;;3.03;1.50;;;;;;;16.94;nan;102113.19;5051767;28;20566;-55
2022/04/10 10:54:21;;;;;;;2.42;1.20;;;;;;;16.57;nan;102142.97;5067266;28;20377;-58
2022/04/10 10:56:46;;;;;;;;;;;;;;;17.15;nan;102157.59;5052169;28;20025;-54
2022/04/10 10:59:30;;;;;;;3.33;1.20;;;;;;;17.32;nan;102160.47;5050295;28;19939;-55
2022/04/10 11:02:02;;;;;;;4.75;1.40;;;;;;;17.51;nan;102155.28;5051447;28;20508;-56
2022/04/10 11:04:31;;;;;;;3.47;1.20;;;;;;;16.52;nan;102152.00;5051479;28;20029;-53
2022/04/10 11:07:10;;;;;;;2.17;0.95;;;;;;;13.99;nan;102102.47;5067070;28;20061;-54
2022/04/10 11:09:59;;;;;;;7.55;1.50;;;;;;;14.91;nan;102132.56;5050155;28;20029;-50
2022/04/10 11:12:47;;;;;;;2.80;1.20;;;;;;;16.45;nan;102124.78;5041824;28;20037;-57
2022/04/10 11:15:19;;;;;;;4.28;1.27;;;;;;;16.06;nan;102142.13;5066370;28;20113;-58
2022/04/10 11:17:45;;;;;;;4.28;1.23;;;;;;;16.83;nan;102131.38;5050852;28;20048;-53
2022/04/10 11:20:11;;;;;;;3.53;1.15;;;;;;;17.96;nan;102132.09;5059690;28;20033;-58
2022/04/10 11:22:47;;;;;;;4.45;1.30;;;;;;;17.91;nan;102112.78;5039951;28;20037;-57
2022/04/10 11:25:13;;;;;;;2.97;1.15;;;;;;;17.17;nan;102125.59;5048709;28;20040;-55
2022/04/10 11:27:44;;;;;;;3.03;1.00;;;;;;;16.72;nan;102126.44;5049502;28;20033;-57
2022/04/10 11:30:14;;;;;;;5.13;1.40;;;;;;;15.62;nan;102119.72;5051074;28;20390;-60
2022/04/10 11:32:45;;;;;;;2.90;1.27;;;;;;;15.17;nan;102114.09;5051609;28;20040;-55
2022/04/10 11:35:22;;;;;;;4.38;1.48;;;;;;;16.00;nan;102111.34;5054116;28;20029;-55
2022/04/10 11:37:50;;;;;;;4.53;1.73;;;;;;;17.43;nan;102105.00;5055350;28;20102;-55
2022/04/10 11:40:24;;;;;;;1.27;1.00;;;;;;;18.77;nan;102107.19;5055378;28;20374;-55
2022/04/10 11:42:51;;;;;;;3.60;0.90;;;;;;;19.83;nan;102099.34;5055342;28;20040;-55
2022/04/10 11:45:17;;;;;;;3.63;1.27;;;;;;;20.50;nan;102094.03;5054843;28;20041;-58
2022/04/10 11:47:43;;;;;;;4.20;1.17;;;;;;;19.77;nan;102116.56;5054992;28;20061;-62
2022/04/10 11:50:11;;;;;;;2.08;1.40;;;;;;;18.27;nan;102107.63;5054446;28;20102;-60
2022/04/10 11:52:39;;;;;;;5.57;1.27;;;;;;;18.19;nan;102109.78;5069289;28;20117;-59
2022/04/10 11:55:05;;;;;;;2.10;1.10;;;;;;;18.72;nan;102102.06;5055265;28;20036;-59